SwiSS Ladder 120 — S-L-120 — position and weather

sailwx.info

Track history (hours):
 
Tides and Currents Weather Stations Pressure Air Temp Water Temp Dewpoint Dewpoint Depression Visibility Wind Speed Wind Dir Waves Ship Positions

SwiSS Ladder 120

Last reported at 2017-Sep-19 22:36 UTC. Time now 2017-Sep-21 23:14 UTC.
Position N 34°09' W 119°13'.

Length 37 m; draft 2 m.

Type: Military. MMSI: 369970278.

Date/timePositionNaut miles runAvg speedWind from/ knotsBaromVisibWave heightAir tempDewpointWater temp
2017-Sep-19 22:36N 34°09' W 119°13'0 0.2
2017-Sep-19 22:26N 34°09' W 119°13'2 5.0
2017-Sep-19 22:00N 34°07' W 119°13'814.5
2017-Sep-19 21:29N 33°60' W 119°14'4 7.5
2017-Sep-19 21:00N 33°56' W 119°14'0 0.4
2017-Sep-19 20:30N 33°56' W 119°14'0 0.1
2017-Sep-19 20:00N 33°56' W 119°14'0 0.7
2017-Sep-19 19:30N 33°56' W 119°14'0 0.3
2017-Sep-19 19:00N 33°57' W 119°14'1 1.0
2017-Sep-19 18:30N 33°57' W 119°14'0 0.3
2017-Sep-19 18:00N 33°57' W 119°14'0 0.3
2017-Sep-19 17:30N 33°57' W 119°14'0 0.3
2017-Sep-19 17:00N 33°57' W 119°14'0 0.4
2017-Sep-19 16:30N 33°58' W 119°14'  
2017-Sep-14 21:46N 34°09' W 119°13'0 1.4
2017-Sep-14 21:30N 34°09' W 119°12'0 0.2
2017-Sep-14 21:01N 34°09' W 119°12'2 4.0
2017-Sep-14 20:31N 34°07' W 119°13'816.6
2017-Sep-14 20:00N 33°59' W 119°17'816.6
2017-Sep-14 19:30N 33°52' W 119°21'3916.9
2017-Sep-14 17:13N 33°15' W 119°36'316.4
2017-Sep-14 17:01N 33°13' W 119°33'3 2.0
2017-Sep-14 15:34N 33°15' W 119°35'122.7
2017-Sep-14 15:30N 33°16' W 119°35'2 2.6
2017-Sep-14 14:49N 33°14' W 119°36'3 5.2
2017-Sep-14 14:17N 33°17' W 119°36'7 8.2
2017-Sep-14 13:29N 33°23' W 119°33'919.3
2017-Sep-14 13:00N 33°32' W 119°28'918.5
2017-Sep-14 12:30N 33°40' W 119°25'1019.4
2017-Sep-14 12:00N 33°50' W 119°21'1019.8
2017-Sep-14 11:30N 33°59' W 119°17'1019.6
2017-Sep-14 11:00N 34°08' W 119°13'1 0.1
2017-Sep-13 22:34N 34°09' W 119°13'0 0.1
2017-Sep-13 22:30N 34°09' W 119°13'612.0
2017-Sep-13 22:01N 34°04' W 119°17'918.7
2017-Sep-13 21:30N 33°58' W 119°25'918.3
2017-Sep-13 21:00N 33°52' W 119°33'1 1.7
2017-Sep-13 20:30N 33°53' W 119°33'0 0.5
2017-Sep-13 20:00N 33°53' W 119°33'0 0.5
2017-Sep-13 19:31N 33°53' W 119°33'2 0.9
2017-Sep-13 16:53N 33°55' W 119°34'2 1.2
2017-Sep-13 15:23N 33°53' W 119°33'0 0.4
2017-Sep-13 15:00N 33°53' W 119°33'714.3
2017-Sep-13 14:30N 33°60' W 119°30'1019.1
2017-Sep-13 13:59N 34°05' W 119°20'714.2
2017-Sep-13 13:29N 34°09' W 119°13'0 0.0
2017-Sep-12 19:15N 34°09' W 119°13'0 0.0
2017-Sep-12 18:58N 34°09' W 119°13'0 0.0
2017-Sep-12 18:25N 34°09' W 119°13'0 0.0
2017-Sep-12 17:59N 34°09' W 119°13'0 0.0
2017-Sep-12 17:22N 34°09' W 119°13'0 0.0
2017-Sep-12 16:58N 34°09' W 119°13'0 0.9
2017-Sep-12 16:30N 34°09' W 119°12'0 0.0
2017-Sep-12 16:00N 34°09' W 119°12'612.8
2017-Sep-12 15:31N 34°03' W 119°15'1019.5
2017-Sep-12 15:00N 33°54' W 119°20'3120.2
2017-Sep-12 13:28N 33°25' W 119°33'818.1
2017-Sep-12 13:01N 33°32' W 119°28'918.3
2017-Sep-12 12:31N 33°41' W 119°25'1018.5
2017-Sep-12 12:00N 33°50' W 119°21'918.8
2017-Sep-12 11:31N 33°59' W 119°17'1019.2
2017-Sep-12 11:00N 34°08' W 119°13'  
2017-Sep-10 02:44N 34°09' W 119°13'0 1.0
2017-Sep-10 02:30N 34°09' W 119°13'1019.0
2017-Sep-10 02:01N 33°59' W 119°13'1020.8
2017-Sep-10 01:31N 33°49' W 119°13'1021.0
2017-Sep-10 01:00N 33°39' W 119°12'3 6.0
2017-Sep-10 00:30N 33°36' W 119°12'1 1.3
2017-Sep-10 00:01N 33°35' W 119°13'  
Track history (hours):
 
Tides and Currents Weather Stations Pressure Air Temp Water Temp Dewpoint Dewpoint Depression Visibility Wind Speed Wind Dir Waves Ship Positions

SwiSS Ladder 120

Last reported at 2017-Sep-19 22:36 UTC. Time now 2017-Sep-21 23:14 UTC.
Position N 34°09' W 119°13'.

Length 37 m; draft 2 m.

Type: Military. MMSI: 369970278.

Date/timePositionNaut miles runAvg speedWind from/ knotsBaromVisibWave heightAir tempDewpointWater temp
2017-Sep-19 22:36N 34°09' W 119°13'0 0.2
2017-Sep-19 22:26N 34°09' W 119°13'2 5.0
2017-Sep-19 22:00N 34°07' W 119°13'814.5
2017-Sep-19 21:29N 33°60' W 119°14'4 7.5
2017-Sep-19 21:00N 33°56' W 119°14'0 0.4
2017-Sep-19 20:30N 33°56' W 119°14'0 0.1
2017-Sep-19 20:00N 33°56' W 119°14'0 0.7
2017-Sep-19 19:30N 33°56' W 119°14'0 0.3
2017-Sep-19 19:00N 33°57' W 119°14'1 1.0
2017-Sep-19 18:30N 33°57' W 119°14'0 0.3
2017-Sep-19 18:00N 33°57' W 119°14'0 0.3
2017-Sep-19 17:30N 33°57' W 119°14'0 0.3
2017-Sep-19 17:00N 33°57' W 119°14'0 0.4
2017-Sep-19 16:30N 33°58' W 119°14'  
2017-Sep-14 21:46N 34°09' W 119°13'0 1.4
2017-Sep-14 21:30N 34°09' W 119°12'0 0.2
2017-Sep-14 21:01N 34°09' W 119°12'2 4.0
2017-Sep-14 20:31N 34°07' W 119°13'816.6
2017-Sep-14 20:00N 33°59' W 119°17'816.6
2017-Sep-14 19:30N 33°52' W 119°21'3916.9
2017-Sep-14 17:13N 33°15' W 119°36'316.4
2017-Sep-14 17:01N 33°13' W 119°33'3 2.0
2017-Sep-14 15:34N 33°15' W 119°35'122.7
2017-Sep-14 15:30N 33°16' W 119°35'2 2.6
2017-Sep-14 14:49N 33°14' W 119°36'3 5.2
2017-Sep-14 14:17N 33°17' W 119°36'7 8.2
2017-Sep-14 13:29N 33°23' W 119°33'919.3
2017-Sep-14 13:00N 33°32' W 119°28'918.5
2017-Sep-14 12:30N 33°40' W 119°25'1019.4
2017-Sep-14 12:00N 33°50' W 119°21'1019.8
2017-Sep-14 11:30N 33°59' W 119°17'1019.6
2017-Sep-14 11:00N 34°08' W 119°13'1 0.1
2017-Sep-13 22:34N 34°09' W 119°13'0 0.1
2017-Sep-13 22:30N 34°09' W 119°13'612.0
2017-Sep-13 22:01N 34°04' W 119°17'918.7
2017-Sep-13 21:30N 33°58' W 119°25'918.3
2017-Sep-13 21:00N 33°52' W 119°33'1 1.7
2017-Sep-13 20:30N 33°53' W 119°33'0 0.5
2017-Sep-13 20:00N 33°53' W 119°33'0 0.5
2017-Sep-13 19:31N 33°53' W 119°33'2 0.9
2017-Sep-13 16:53N 33°55' W 119°34'2 1.2
2017-Sep-13 15:23N 33°53' W 119°33'0 0.4
2017-Sep-13 15:00N 33°53' W 119°33'714.3
2017-Sep-13 14:30N 33°60' W 119°30'1019.1
2017-Sep-13 13:59N 34°05' W 119°20'714.2
2017-Sep-13 13:29N 34°09' W 119°13'0 0.0
2017-Sep-12 19:15N 34°09' W 119°13'0 0.0
2017-Sep-12 18:58N 34°09' W 119°13'0 0.0
2017-Sep-12 18:25N 34°09' W 119°13'0 0.0
2017-Sep-12 17:59N 34°09' W 119°13'0 0.0
2017-Sep-12 17:22N 34°09' W 119°13'0 0.0
2017-Sep-12 16:58N 34°09' W 119°13'0 0.9
2017-Sep-12 16:30N 34°09' W 119°12'0 0.0
2017-Sep-12 16:00N 34°09' W 119°12'612.8
2017-Sep-12 15:31N 34°03' W 119°15'1019.5
2017-Sep-12 15:00N 33°54' W 119°20'3120.2
2017-Sep-12 13:28N 33°25' W 119°33'818.1
2017-Sep-12 13:01N 33°32' W 119°28'918.3
2017-Sep-12 12:31N 33°41' W 119°25'1018.5
2017-Sep-12 12:00N 33°50' W 119°21'918.8
2017-Sep-12 11:31N 33°59' W 119°17'1019.2
2017-Sep-12 11:00N 34°08' W 119°13'  
2017-Sep-10 02:44N 34°09' W 119°13'0 1.0
2017-Sep-10 02:30N 34°09' W 119°13'1019.0
2017-Sep-10 02:01N 33°59' W 119°13'1020.8
2017-Sep-10 01:31N 33°49' W 119°13'1021.0
2017-Sep-10 01:00N 33°39' W 119°12'3 6.0
2017-Sep-10 00:30N 33°36' W 119°12'1 1.3
2017-Sep-10 00:01N 33°35' W 119°13'  

Dump ship's entire track history